Time;durP1;ratioP1;P1;durP2;ratioP2;P2;SDS_P1;SDS_P2;PMS_P1;PMS_P2;Temp;Humidity;BMP_temperature;BMP_pressure;BME280_temperature;BME280_humidity;BME280_pressure;Samples;Min_cycle;Max_cycle;Signal;HPM_P1;HPM_P2
2023/02/21 02:14:48;;;;;;;33.07;29.37;;;9.80;99.90;;;;;;5094510;28;20460;-75
2023/02/21 02:17:29;;;;;;;29.77;26.57;;;9.90;99.90;;;;;;5090354;28;20551;-74
2023/02/21 02:20:31;;;;;;;32.80;28.97;;;9.90;99.90;;;;;;5093162;28;20429;-73
2023/02/21 02:23:34;;;;;;;32.73;29.20;;;9.80;99.90;;;;;;5093126;28;20536;-74
2023/02/21 02:26:36;;;;;;;32.07;28.30;;;9.80;99.90;;;;;;5094243;28;20459;-74
2023/02/21 02:29:24;;;;;;;31.57;28.37;;;9.80;99.90;;;;;;5093924;28;20814;-74
2023/02/21 02:32:25;;;;;;;29.87;26.67;;;9.80;99.90;;;;;;5092724;28;20476;-74
2023/02/21 02:35:05;;;;;;;31.33;26.87;;;9.80;99.90;;;;;;5081141;28;20521;-74
2023/02/21 02:37:45;;;;;;;29.57;26.53;;;9.80;99.90;;;;;;5093812;28;20420;-74
2023/02/21 02:40:24;;;;;;;30.80;27.50;;;9.80;99.90;;;;;;5092488;28;20444;-74
2023/02/21 02:43:04;;;;;;;31.77;27.43;;;9.80;99.90;;;;;;5092634;28;20517;-72
2023/02/21 02:45:37;;;;;;;29.90;26.67;;;9.80;99.90;;;;;;5092470;28;20432;-73
2023/02/21 02:48:13;;;;;;;30.60;27.40;;;9.80;99.90;;;;;;5092422;28;20506;-73
2023/02/21 02:50:49;;;;;;;32.50;28.10;;;9.80;99.90;;;;;;5093456;28;20504;-73
2023/02/21 02:53:22;;;;;;;30.30;27.07;;;9.80;99.90;;;;;;5092375;28;20528;-74
2023/02/21 02:55:56;;;;;;;32.70;27.43;;;9.80;99.90;;;;;;5092318;28;20530;-74
2023/02/21 02:58:30;;;;;;;29.53;26.23;;;9.80;99.90;;;;;;5092142;28;20952;-74
2023/02/21 03:01:14;;;;;;;33.40;28.60;;;9.80;99.90;;;;;;5092260;28;20460;-74
2023/02/21 03:03:58;;;;;;;31.80;28.40;;;9.80;99.90;;;;;;5092266;28;20451;-75
2023/02/21 03:06:35;;;;;;;30.50;27.37;;;9.90;99.90;;;;;;5091976;28;20451;-75
2023/02/21 03:09:14;;;;;;;31.97;26.77;;;9.90;99.90;;;;;;5092387;28;20435;-74
2023/02/21 03:11:56;;;;;;;30.17;26.80;;;9.90;99.90;;;;;;5091990;28;20498;-74
2023/02/21 03:14:30;;;;;;;33.97;27.07;;;9.80;99.90;;;;;;5093964;28;20427;-74
2023/02/21 03:17:04;;;;;;;32.47;27.17;;;9.90;99.90;;;;;;5092074;28;20447;-74
2023/02/21 03:19:38;;;;;;;29.63;26.60;;;9.80;99.90;;;;;;5093394;28;20415;-74
2023/02/21 03:22:14;;;;;;;30.60;25.67;;;9.80;99.90;;;;;;5091997;28;20464;-74
2023/02/21 03:24:51;;;;;;;32.77;26.50;;;9.80;99.90;;;;;;5092112;28;20447;-74
2023/02/21 03:27:23;;;;;;;31.50;28.20;;;9.80;99.90;;;;;;5091944;28;20475;-74
2023/02/21 03:30:01;;;;;;;28.77;25.70;;;9.80;99.90;;;;;;5091982;28;20440;-74
2023/02/21 03:35:05;;;;;;;28.63;25.60;;;9.80;99.90;;;;;;5091937;28;20440;-74
2023/02/21 03:37:40;;;;;;;30.20;27.10;;;9.80;99.90;;;;;;5093452;28;20920;-74
2023/02/21 03:40:13;;;;;;;32.47;27.60;;;9.80;99.90;;;;;;5091913;28;20448;-73
2023/02/21 03:42:47;;;;;;;29.77;26.67;;;9.80;99.90;;;;;;5092303;28;20936;-75
2023/02/21 03:45:20;;;;;;;29.80;26.90;;;9.80;99.90;;;;;;5091986;28;20458;-73
2023/02/21 03:48:18;;;;;;;30.63;27.70;;;9.80;99.90;;;;;;5092605;28;20444;-73
2023/02/21 03:51:06;;;;;;;31.73;27.87;;;9.80;99.90;;;;;;5091635;28;20464;-73
2023/02/21 03:53:39;;;;;;;31.10;27.80;;;9.80;99.90;;;;;;5091852;28;20436;-73
2023/02/21 03:56:10;;;;;;;31.90;28.60;;;9.80;99.90;;;;;;5092118;28;20448;-74
2023/02/21 03:58:56;;;;;;;31.10;27.73;;;9.80;99.90;;;;;;5091762;28;20913;-74
2023/02/21 04:01:29;;;;;;;32.47;29.00;;;9.80;99.90;;;;;;5091867;28;20464;-74
2023/02/21 04:03:59;;;;;;;31.97;28.77;;;9.80;99.90;;;;;;5091693;28;20523;-74
2023/02/21 04:06:29;;;;;;;34.27;30.77;;;9.80;99.90;;;;;;5091552;28;20509;-73
2023/02/21 04:09:00;;;;;;;35.17;30.83;;;9.80;99.90;;;;;;5091656;28;20476;-73
2023/02/21 04:11:32;;;;;;;35.17;30.83;;;9.80;99.90;;;;;;5091439;28;20472;-73
2023/02/21 04:14:03;;;;;;;38.17;30.80;;;9.80;99.90;;;;;;5093135;28;20518;-74
2023/02/21 04:16:32;;;;;;;32.40;28.90;;;9.80;99.90;;;;;;5095278;28;20531;-73
2023/02/21 04:19:02;;;;;;;35.20;29.93;;;9.80;99.90;;;;;;5095183;28;20451;-74
2023/02/21 04:21:31;;;;;;;34.77;28.97;;;9.80;99.90;;;;;;5095049;28;20460;-74
2023/02/21 04:24:03;;;;;;;32.03;28.70;;;9.80;99.90;;;;;;5095527;28;20455;-74
2023/02/21 04:26:34;;;;;;;31.63;28.30;;;9.80;99.90;;;;;;5096331;28;20494;-74
2023/02/21 04:29:06;;;;;;;30.70;27.50;;;9.80;99.90;;;;;;5095180;28;20454;-74
2023/02/21 04:31:35;;;;;;;33.23;29.60;;;9.80;99.90;;;;;;5094863;28;20483;-74
2023/02/21 04:34:10;;;;;;;34.87;28.03;;;9.80;99.90;;;;;;5096199;28;20469;-74
2023/02/21 04:36:43;;;;;;;34.57;29.10;;;9.80;99.90;;;;;;5094875;28;20443;-74
2023/02/21 04:39:15;;;;;;;34.53;27.50;;;9.70;99.90;;;;;;5094739;28;21014;-74
2023/02/21 04:41:45;;;;;;;34.80;28.93;;;9.80;99.90;;;;;;5094751;28;20567;-74
2023/02/21 04:44:17;;;;;;;32.37;28.83;;;9.80;99.90;;;;;;5095896;28;20946;-74
2023/02/21 04:46:46;;;;;;;31.30;26.80;;;9.80;99.90;;;;;;5096241;28;20420;-74
2023/02/21 04:49:16;;;;;;;34.00;28.87;;;9.80;99.90;;;;;;5094538;28;20444;-74
2023/02/21 04:51:45;;;;;;;31.77;26.93;;;9.80;99.90;;;;;;5094382;28;20893;-74
2023/02/21 04:54:17;;;;;;;34.83;29.20;;;9.80;99.90;;;;;;5094459;28;20973;-74
2023/02/21 04:56:47;;;;;;;32.17;28.40;;;9.80;99.90;;;;;;5094451;28;20439;-74
2023/02/21 04:59:16;;;;;;;33.87;28.20;;;9.80;99.90;;;;;;5095941;28;20541;-75
2023/02/21 05:01:45;;;;;;;33.37;28.80;;;9.80;99.90;;;;;;5094256;28;20912;-73
2023/02/21 05:04:16;;;;;;;30.50;27.40;;;9.80;99.90;;;;;;5094394;28;20451;-74
2023/02/21 05:06:45;;;;;;;32.07;28.63;;;9.80;99.90;;;;;;5095351;28;20471;-75
2023/02/21 05:09:16;;;;;;;31.17;27.30;;;9.80;99.90;;;;;;5095392;28;20793;-75
2023/02/21 05:11:45;;;;;;;32.80;28.60;;;9.80;99.90;;;;;;5095312;28;21030;-74
2023/02/21 05:14:17;;;;;;;33.13;28.13;;;9.80;99.90;;;;;;5095334;28;20443;-73
2023/02/21 05:16:45;;;;;;;35.57;28.27;;;9.80;99.90;;;;;;5095601;28;20421;-73
2023/02/21 05:19:26;;;;;;;31.30;28.00;;;9.80;99.90;;;;;;5093950;28;20519;-73
2023/02/21 05:21:56;;;;;;;33.43;27.47;;;9.80;99.90;;;;;;5095268;28;20460;-73
2023/02/21 05:24:28;;;;;;;34.67;29.50;;;9.80;99.90;;;;;;5094968;28;20810;-73
2023/02/21 05:26:59;;;;;;;38.93;28.60;;;9.80;99.90;;;;;;5095313;28;20914;-73
2023/02/21 05:29:28;;;;;;;35.50;29.53;;;9.80;99.90;;;;;;5093757;28;20433;-73
2023/02/21 05:31:58;;;;;;;33.90;28.40;;;9.80;99.90;;;;;;5094697;28;20509;-73
2023/02/21 05:34:28;;;;;;;33.70;29.37;;;9.80;99.90;;;;;;5094843;28;20444;-74
2023/02/21 05:36:58;;;;;;;31.90;26.90;;;9.80;99.90;;;;;;5095149;28;20447;-73
2023/02/21 05:39:28;;;;;;;40.70;30.30;;;9.80;99.90;;;;;;5094736;28;20432;-73
2023/02/21 05:41:58;;;;;;;38.67;30.33;;;9.80;99.90;;;;;;5093469;28;20497;-73
2023/02/21 05:44:27;;;;;;;37.23;30.70;;;9.80;99.90;;;;;;5094784;28;20440;-75
2023/02/21 05:46:56;;;;;;;32.37;28.90;;;9.80;99.90;;;;;;5093431;28;21052;-73
2023/02/21 05:49:27;;;;;;;37.50;29.27;;;9.80;99.90;;;;;;5094287;28;20474;-73
2023/02/21 05:51:56;;;;;;;36.60;31.07;;;9.70;99.90;;;;;;5094564;28;20463;-73
2023/02/21 05:54:26;;;;;;;36.87;29.20;;;9.70;99.90;;;;;;5094574;28;20454;-73
2023/02/21 05:56:57;;;;;;;31.20;27.80;;;9.70;99.90;;;;;;5093287;28;20455;-73
2023/02/21 05:59:25;;;;;;;34.67;28.77;;;9.70;99.90;;;;;;5094808;28;20448;-74
2023/02/21 06:01:54;;;;;;;35.57;27.80;;;9.70;99.90;;;;;;5093133;28;20475;-74
2023/02/21 06:04:23;;;;;;;31.90;28.40;;;9.70;99.90;;;;;;5095022;28;20425;-74
2023/02/21 06:06:51;;;;;;;33.43;29.03;;;9.70;99.90;;;;;;5093019;28;20463;-74
2023/02/21 06:09:20;;;;;;;35.77;29.40;;;9.70;99.90;;;;;;5094461;28;20999;-74
2023/02/21 06:11:48;;;;;;;40.47;29.87;;;9.70;99.90;;;;;;5093007;28;20559;-74
2023/02/21 06:14:20;;;;;;;37.33;29.97;;;9.70;99.90;;;;;;5094224;28;20559;-75
2023/02/21 06:16:48;;;;;;;35.43;30.07;;;9.70;99.90;;;;;;5092973;28;20447;-75
2023/02/21 06:19:18;;;;;;;34.00;28.13;;;9.70;99.90;;;;;;5092945;28;20448;-74
2023/02/21 06:21:48;;;;;;;35.70;29.40;;;9.70;99.90;;;;;;5094025;28;20513;-74
2023/02/21 06:24:16;;;;;;;35.60;31.03;;;9.70;99.90;;;;;;5094364;28;20462;-76
2023/02/21 06:26:44;;;;;;;40.80;32.30;;;9.70;99.90;;;;;;5092758;28;20531;-75
2023/02/21 06:29:13;;;;;;;37.47;31.80;;;9.70;99.90;;;;;;5092813;28;20448;-75
2023/02/21 06:31:43;;;;;;;36.90;31.23;;;9.70;99.90;;;;;;5093846;28;20480;-75
2023/02/21 06:34:11;;;;;;;38.63;31.00;;;9.70;99.90;;;;;;5092545;28;20460;-76
2023/02/21 06:36:40;;;;;;;37.23;30.70;;;9.70;99.90;;;;;;5093441;28;20464;-75
2023/02/21 06:39:10;;;;;;;40.70;32.00;;;9.70;99.90;;;;;;5093792;28;20435;-76
2023/02/21 06:41:38;;;;;;;35.20;30.40;;;9.70;99.90;;;;;;5093818;28;20455;-76
2023/02/21 06:44:07;;;;;;;40.10;30.93;;;9.70;99.90;;;;;;5092499;28;20436;-76
2023/02/21 06:46:36;;;;;;;39.27;30.43;;;9.70;99.90;;;;;;5094411;28;20427;-77
2023/02/21 06:49:06;;;;;;;35.90;29.20;;;9.70;99.90;;;;;;5093723;28;20448;-76
2023/02/21 06:51:35;;;;;;;39.00;29.37;;;9.70;99.90;;;;;;5092300;28;20503;-76
2023/02/21 06:54:03;;;;;;;33.87;29.53;;;9.70;99.90;;;;;;5092259;28;20873;-76
2023/02/21 06:56:31;;;;;;;40.13;31.63;;;9.70;99.90;;;;;;5093851;28;20938;-75
2023/02/21 06:59:00;;;;;;;36.87;29.80;;;9.80;99.90;;;;;;5093329;28;20925;-75
2023/02/21 07:01:29;;;;;;;37.07;28.03;;;9.80;99.90;;;;;;5093697;28;20456;-75
2023/02/21 07:03:58;;;;;;;36.40;29.93;;;9.80;99.90;;;;;;5093442;28;20489;-76
2023/02/21 07:06:28;;;;;;;32.30;27.70;;;9.80;99.90;;;;;;5093295;28;20941;-76
2023/02/21 07:08:57;;;;;;;34.97;29.50;;;9.80;99.90;;;;;;5093385;28;20523;-75
2023/02/21 07:11:25;;;;;;;33.90;28.30;;;9.80;99.90;;;;;;5093402;28;20491;-74
2023/02/21 07:13:55;;;;;;;36.77;27.90;;;9.80;99.90;;;;;;5093251;28;20464;-74
2023/02/21 07:16:24;;;;;;;32.30;28.60;;;9.80;99.90;;;;;;5093679;28;20412;-75
2023/02/21 07:18:52;;;;;;;33.00;28.80;;;9.80;99.90;;;;;;5093312;28;20465;-76
2023/02/21 07:21:21;;;;;;;32.80;28.60;;;9.80;99.90;;;;;;5093837;28;20509;-76
2023/02/21 07:23:50;;;;;;;33.10;26.10;;;9.80;99.90;;;;;;5092035;28;20448;-76
2023/02/21 07:26:19;;;;;;;32.43;27.30;;;9.80;99.90;;;;;;5092004;28;20483;-76
2023/02/21 07:28:48;;;;;;;33.07;27.80;;;9.80;99.90;;;;;;5093500;28;20436;-75
2023/02/21 07:31:17;;;;;;;37.10;27.57;;;9.70;99.90;;;;;;5093483;28;20479;-76
2023/02/21 07:33:46;;;;;;;36.30;28.07;;;9.80;99.90;;;;;;5091927;28;20460;-76
2023/02/21 07:36:15;;;;;;;32.87;27.73;;;9.80;99.90;;;;;;5091996;28;20487;-76
2023/02/21 07:38:43;;;;;;;36.70;27.10;;;9.80;99.90;;;;;;5093169;28;20436;-75
2023/02/21 07:41:14;;;;;;;36.10;27.57;;;9.80;99.90;;;;;;5093142;28;20451;-74
2023/02/21 07:43:43;;;;;;;30.70;25.73;;;9.80;99.90;;;;;;5093178;28;20958;-75
2023/02/21 07:46:11;;;;;;;36.17;27.90;;;9.80;99.90;;;;;;5093086;28;20440;-75
2023/02/21 07:48:39;;;;;;;28.77;25.63;;;9.80;99.90;;;;;;5094405;28;20443;-75
2023/02/21 07:51:08;;;;;;;31.77;25.83;;;9.80;99.90;;;;;;5097359;28;21001;-76
2023/02/21 07:53:36;;;;;;;29.33;25.90;;;9.80;99.90;;;;;;5095595;28;21128;-75
2023/02/21 07:56:05;;;;;;;33.33;26.70;;;9.80;99.90;;;;;;5096852;28;20428;-75
2023/02/21 07:58:36;;;;;;;31.00;26.50;;;9.80;99.90;;;;;;5095546;28;20822;-75
2023/02/21 08:01:04;;;;;;;30.87;26.10;;;9.80;99.90;;;;;;5095817;28;20498;-75
2023/02/21 08:03:33;;;;;;;37.60;27.53;;;9.80;99.90;;;;;;5095472;28;20448;-75
2023/02/21 08:06:01;;;;;;;34.03;27.70;;;9.90;99.90;;;;;;5096946;28;20998;-75
2023/02/21 08:08:29;;;;;;;34.60;26.97;;;9.90;99.90;;;;;;5097214;28;20486;-75
2023/02/21 08:10:58;;;;;;;33.13;26.70;;;9.90;99.90;;;;;;5095244;28;20460;-75
2023/02/21 08:13:26;;;;;;;34.40;28.53;;;9.90;99.90;;;;;;5095270;28;20444;-75
2023/02/21 08:15:55;;;;;;;35.90;27.40;;;9.90;99.90;;;;;;5095230;28;20447;-75
2023/02/21 08:18:25;;;;;;;32.03;26.53;;;9.90;99.90;;;;;;5096480;28;20467;-75
2023/02/21 08:20:53;;;;;;;33.70;28.00;;;9.90;99.90;;;;;;5094995;28;20460;-75
2023/02/21 08:23:22;;;;;;;31.00;26.47;;;9.90;99.90;;;;;;5096343;28;20963;-75
2023/02/21 08:25:50;;;;;;;33.20;25.60;;;9.90;99.90;;;;;;5096295;28;20428;-74
2023/02/21 08:28:18;;;;;;;32.70;24.50;;;9.90;99.90;;;;;;5096282;28;20794;-74
2023/02/21 08:30:46;;;;;;;31.93;26.67;;;9.90;99.90;;;;;;5096155;28;20444;-75
2023/02/21 08:33:16;;;;;;;32.33;26.17;;;9.90;99.90;;;;;;5094904;28;20972;-75
2023/02/21 08:35:44;;;;;;;38.93;26.47;;;9.90;99.90;;;;;;5096070;28;20967;-75
2023/02/21 08:38:12;;;;;;;30.23;26.37;;;9.90;99.90;;;;;;5096126;28;20428;-75
2023/02/21 08:40:41;;;;;;;41.07;27.43;;;10.00;99.90;;;;;;5095938;28;20466;-75
2023/02/21 08:43:09;;;;;;;30.10;26.50;;;10.00;99.90;;;;;;5095941;28;20959;-74
2023/02/21 08:45:37;;;;;;;30.63;26.63;;;10.00;99.90;;;;;;5096444;28;20917;-75
2023/02/21 08:48:05;;;;;;;33.80;27.60;;;10.00;99.90;;;;;;5096067;28;20428;-75
2023/02/21 08:50:35;;;;;;;32.83;26.37;;;10.00;99.90;;;;;;5094675;28;20578;-75
2023/02/21 08:53:03;;;;;;;31.30;26.00;;;10.00;99.90;;;;;;5094507;28;20447;-75
2023/02/21 08:55:31;;;;;;;32.60;26.43;;;10.00;99.90;;;;;;5095645;28;20494;-74
2023/02/21 08:57:59;;;;;;;31.77;26.17;;;10.00;99.90;;;;;;5094523;28;20822;-75
2023/02/21 09:00:28;;;;;;;31.50;26.70;;;10.00;99.90;;;;;;5093996;28;20461;-75
2023/02/21 09:02:57;;;;;;;31.33;26.60;;;10.00;99.90;;;;;;5096168;28;20436;-75
2023/02/21 09:05:27;;;;;;;35.20;27.57;;;10.00;99.90;;;;;;5094082;28;20534;-75
2023/02/21 09:08:00;;;;;;;31.93;27.27;;;10.10;99.90;;;;;;5095889;28;20413;-75
2023/02/21 09:10:32;;;;;;;34.43;27.50;;;10.10;99.90;;;;;;5094153;28;20807;-74
2023/02/21 09:13:01;;;;;;;34.27;27.40;;;10.00;99.90;;;;;;5094216;28;20447;-75
2023/02/21 09:15:30;;;;;;;30.53;25.90;;;10.10;99.90;;;;;;5095310;28;20977;-75
2023/02/21 09:17:59;;;;;;;31.53;25.80;;;10.10;99.90;;;;;;5095660;28;20527;-75
2023/02/21 09:20:27;;;;;;;30.53;26.47;;;10.10;99.90;;;;;;5095516;28;20494;-74
2023/02/21 09:22:57;;;;;;;30.73;27.27;;;10.10;99.90;;;;;;5095232;28;20440;-74
2023/02/21 09:25:25;;;;;;;31.13;27.47;;;10.10;99.90;;;;;;5095202;28;20435;-76
2023/02/21 09:27:54;;;;;;;31.33;27.27;;;10.10;99.90;;;;;;5093896;28;20974;-75
2023/02/21 09:30:25;;;;;;;30.00;25.63;;;10.10;99.90;;;;;;5093738;28;20460;-74
2023/02/21 09:32:54;;;;;;;40.10;28.07;;;10.10;99.90;;;;;;5093739;28;20520;-75
2023/02/21 09:35:23;;;;;;;31.43;27.50;;;10.10;99.90;;;;;;5094935;28;20892;-74
2023/02/21 09:37:51;;;;;;;35.17;27.17;;;10.10;99.90;;;;;;5093756;28;20484;-74
2023/02/21 09:40:29;;;;;;;32.50;27.27;;;10.10;99.90;;;;;;5093626;28;20452;-76
2023/02/21 09:42:59;;;;;;;34.87;28.10;;;10.10;99.90;;;;;;5095508;28;20427;-75
2023/02/21 09:45:31;;;;;;;35.27;27.80;;;10.20;99.90;;;;;;5093540;28;20494;-75
2023/02/21 09:48:04;;;;;;;35.83;25.93;;;10.20;99.90;;;;;;5093541;28;20440;-74
2023/02/21 09:50:39;;;;;;;37.60;28.70;;;10.20;99.90;;;;;;5095034;28;20460;-74
2023/02/21 09:53:08;;;;;;;34.40;29.80;;;10.20;99.90;;;;;;5095115;28;20427;-75
2023/02/21 09:55:40;;;;;;;33.57;26.93;;;10.20;99.90;;;;;;5093408;28;20464;-75
2023/02/21 09:58:12;;;;;;;35.70;28.90;;;10.30;99.90;;;;;;5094969;28;20409;-75
2023/02/21 10:00:41;;;;;;;29.70;26.50;;;10.30;99.90;;;;;;5093172;28;20813;-74
2023/02/21 10:03:26;;;;;;;34.00;29.70;;;10.30;99.90;;;;;;5094795;28;20444;-75
2023/02/21 10:06:02;;;;;;;31.77;28.17;;;10.30;99.90;;;;;;5094546;28;20444;-75
2023/02/21 10:08:40;;;;;;;32.37;28.37;;;10.30;99.90;;;;;;5094339;28;20436;-74
2023/02/21 10:11:26;;;;;;;33.73;26.40;;;10.30;99.90;;;;;;5094170;28;20460;-75
2023/02/21 10:14:01;;;;;;;34.60;28.00;;;10.30;99.90;;;;;;5093054;28;20955;-75
2023/02/21 10:16:36;;;;;;;31.23;26.97;;;10.40;99.90;;;;;;5092942;28;20543;-74
2023/02/21 10:19:14;;;;;;;30.13;25.17;;;10.40;99.90;;;;;;5094271;28;20422;-75
2023/02/21 10:21:46;;;;;;;40.03;26.47;;;10.40;99.90;;;;;;5092894;28;20568;-75
2023/02/21 10:24:16;;;;;;;34.30;25.53;;;10.40;99.90;;;;;;5092809;28;20807;-74
2023/02/21 10:26:52;;;;;;;28.73;25.60;;;10.50;99.90;;;;;;5094514;28;20421;-74
2023/02/21 10:29:23;;;;;;;30.17;22.93;;;10.50;99.90;;;;;;5092814;28;20443;-74
2023/02/21 10:31:57;;;;;;;28.43;23.93;;;10.50;99.90;;;;;;5093970;28;20464;-74
2023/02/21 10:34:27;;;;;;;33.20;25.13;;;10.50;99.90;;;;;;5093971;28;20421;-74
2023/02/21 10:36:58;;;;;;;32.17;25.90;;;10.60;99.90;;;;;;5093792;28;20423;-74
2023/02/21 10:39:34;;;;;;;32.27;25.50;;;10.60;99.90;;;;;;5093677;28;20424;-74
2023/02/21 10:42:03;;;;;;;27.67;23.13;;;10.60;99.90;;;;;;5092339;28;20456;-74
2023/02/21 10:44:34;;;;;;;27.90;23.13;;;10.60;99.90;;;;;;5093537;28;20463;-74
2023/02/21 10:47:09;;;;;;;26.77;23.60;;;10.70;99.90;;;;;;5093817;28;20424;-74
2023/02/21 10:49:44;;;;;;;30.87;24.10;;;10.70;99.90;;;;;;5094029;28;20427;-75
2023/02/21 10:52:15;;;;;;;30.10;23.97;;;10.80;99.90;;;;;;5092324;28;20830;-74
2023/02/21 10:55:00;;;;;;;28.93;23.80;;;10.80;99.90;;;;;;5093943;28;20957;-74
2023/02/21 10:57:31;;;;;;;27.70;24.17;;;10.80;99.90;;;;;;5094125;28;20894;-75
2023/02/21 11:00:08;;;;;;;24.40;21.70;;;10.90;99.90;;;;;;5093807;28;20424;-75
2023/02/21 11:02:39;;;;;;;32.57;25.37;;;10.90;99.90;;;;;;5093625;28;20424;-75
2023/02/21 11:05:15;;;;;;;28.73;22.60;;;10.90;99.90;;;;;;5092263;28;20441;-75
2023/02/21 11:07:57;;;;;;;29.73;24.17;;;11.00;99.90;;;;;;5092206;28;20524;-75
2023/02/21 11:10:28;;;;;;;28.83;21.83;;;11.10;99.90;;;;;;5093637;28;20456;-74
2023/02/21 11:13:15;;;;;;;26.07;23.27;;;11.10;99.90;;;;;;5093734;28;20420;-74
2023/02/21 11:15:43;;;;;;;26.60;21.87;;;11.10;99.90;;;;;;5093613;28;20466;-75
2023/02/21 11:18:17;;;;;;;23.90;20.43;;;11.10;99.90;;;;;;5093361;28;20432;-75
2023/02/21 11:20:47;;;;;;;25.23;21.60;;;11.10;99.90;;;;;;5092034;28;20464;-75
2023/02/21 11:23:21;;;;;;;26.17;22.00;;;11.20;99.90;;;;;;5095159;28;20436;-75
2023/02/21 11:25:51;;;;;;;25.33;21.23;;;11.20;99.90;;;;;;5096293;28;20472;-75
2023/02/21 11:28:22;;;;;;;24.23;19.07;;;11.20;99.90;;;;;;5097724;28;20435;-74
2023/02/21 11:31:04;;;;;;;25.80;20.50;;;11.30;99.90;;;;;;5096167;28;20659;-74
2023/02/21 11:33:38;;;;;;;22.30;19.13;;;11.30;99.90;;;;;;5096115;28;20454;-75
2023/02/21 11:36:13;;;;;;;23.27;18.10;;;11.40;99.90;;;;;;5095947;28;20456;-74
2023/02/21 11:38:44;;;;;;;23.57;18.30;;;11.40;99.90;;;;;;5097251;28;20469;-75
2023/02/21 11:41:21;;;;;;;23.53;18.30;;;11.40;99.90;;;;;;5095910;28;20483;-75
2023/02/21 11:43:51;;;;;;;23.93;18.60;;;11.40;99.90;;;;;;5095981;28;20436;-74
2023/02/21 11:46:34;;;;;;;25.47;18.33;;;11.40;99.90;;;;;;5097190;28;20784;-75
2023/02/21 11:49:11;;;;;;;22.03;17.63;;;11.40;99.90;;;;;;5097389;28;20442;-75
2023/02/21 11:51:43;;;;;;;23.87;18.53;;;11.50;99.90;;;;;;5095788;28;20471;-74
2023/02/21 11:54:12;;;;;;;21.33;17.80;;;11.50;99.90;;;;;;5095699;28;20454;-74
2023/02/21 11:56:48;;;;;;;24.43;17.13;;;11.50;99.90;;;;;;5096849;28;21041;-74
2023/02/21 11:59:41;;;;;;;23.10;19.10;;;11.50;99.90;;;;;;5096473;28;20538;-75
2023/02/21 12:02:31;;;;;;;24.30;17.80;;;11.60;99.90;;;;;;5096796;28;20451;-75
2023/02/21 12:05:10;;;;;;;19.83;17.37;;;11.60;99.90;;;;;;5097097;28;20417;-75
2023/02/21 12:07:46;;;;;;;22.60;17.90;;;11.60;99.90;;;;;;5096720;28;20440;-75
2023/02/21 12:10:44;;;;;;;20.53;18.50;;;11.60;99.90;;;;;;5096733;28;20421;-74
2023/02/21 12:13:25;;;;;;;23.90;19.20;;;11.60;99.90;;;;;;5096929;28;20495;-74
2023/02/21 12:16:07;;;;;;;20.97;18.57;;;11.60;99.90;;;;;;5096525;28;20940;-74
2023/02/21 12:18:57;;;;;;;21.97;18.57;;;11.60;99.90;;;;;;5096527;28;20442;-74
2023/02/21 12:21:51;;;;;;;22.57;18.00;;;11.70;99.90;;;;;;5095559;28;20521;-75
2023/02/21 12:24:33;;;;;;;22.77;18.83;;;11.70;99.90;;;;;;5095511;28;20547;-74
2023/02/21 12:27:10;;;;;;;20.40;17.23;;;11.70;99.90;;;;;;5096876;28;20427;-74
2023/02/21 12:30:04;;;;;;;21.43;18.17;;;11.80;99.90;;;;;;5095121;28;20428;-74
2023/02/21 12:32:48;;;;;;;23.10;18.80;;;11.80;99.90;;;;;;5096286;28;20482;-75
2023/02/21 12:36:19;;;;;;;22.60;19.33;;;11.80;99.90;;;;;;5094947;28;20463;-75
2023/02/21 12:39:10;;;;;;;20.80;18.17;;;11.90;99.90;;;;;;5094929;28;20490;-73
2023/02/21 12:42:11;;;;;;;21.30;18.60;;;11.80;99.90;;;;;;5096100;28;20460;-73
2023/02/21 12:44:49;;;;;;;20.90;17.40;;;11.90;99.90;;;;;;5094610;28;20436;-73
2023/02/21 12:47:20;;;;;;;20.30;16.90;;;11.90;99.90;;;;;;5094726;28;20435;-73
2023/02/21 12:49:54;;;;;;;20.43;16.87;;;11.90;99.90;;;;;;5096611;28;20424;-73
2023/02/21 12:52:28;;;;;;;18.13;16.03;;;11.90;99.90;;;;;;5096694;28;20459;-75
2023/02/21 12:55:03;;;;;;;19.60;17.30;;;11.90;99.90;;;;;;5095494;28;20444;-73
2023/02/21 12:57:49;;;;;;;18.77;16.77;;;11.90;99.90;;;;;;5096367;28;20933;-75
2023/02/21 13:00:22;;;;;;;20.30;17.97;;;12.00;99.90;;;;;;5094661;28;20485;-75
2023/02/21 13:03:01;;;;;;;19.20;16.97;;;12.00;99.90;;;;;;5094553;28;20440;-75
2023/02/21 13:05:38;;;;;;;20.20;17.03;;;12.00;99.90;;;;;;5095571;28;20477;-73
2023/02/21 13:08:18;;;;;;;18.00;15.53;;;12.00;99.90;;;;;;5096124;28;20810;-76
2023/02/21 13:10:52;;;;;;;21.50;16.03;;;12.10;99.90;;;;;;5095653;28;20455;-73
2023/02/21 13:13:24;;;;;;;18.83;16.27;;;12.10;99.90;;;;;;5095522;28;20429;-73
2023/02/21 13:15:56;;;;;;;20.17;16.63;;;12.10;99.90;;;;;;5095336;28;20454;-74
2023/02/21 13:18:30;;;;;;;21.03;16.40;;;12.10;99.90;;;;;;5094087;28;20818;-74
2023/02/21 13:21:11;;;;;;;19.50;16.37;;;12.10;99.90;;;;;;5095504;28;20477;-74
2023/02/21 13:24:30;;;;;;;21.90;17.80;;;12.10;99.90;;;;;;5095339;28;20424;-73
2023/02/21 13:27:42;;;;;;;20.03;17.77;;;12.10;99.90;;;;;;5095490;28;20440;-73
2023/02/21 13:30:15;;;;;;;22.37;20.07;;;12.10;99.90;;;;;;5095033;28;20465;-73
2023/02/21 13:32:52;;;;;;;23.33;20.40;;;12.10;99.90;;;;;;5093837;28;20451;-73
2023/02/21 13:35:25;;;;;;;22.97;20.57;;;12.10;99.90;;;;;;5095131;28;20412;-73
2023/02/21 13:37:56;;;;;;;24.60;20.53;;;12.20;99.90;;;;;;5095240;28;20456;-73
2023/02/21 13:40:31;;;;;;;23.13;20.63;;;12.20;99.90;;;;;;5095315;28;20464;-74
2023/02/21 13:43:06;;;;;;;23.17;20.30;;;12.10;99.90;;;;;;5094900;28;20781;-74
2023/02/21 13:45:34;;;;;;;27.60;20.50;;;12.10;99.90;;;;;;5093217;28;20983;-73
2023/02/21 13:48:24;;;;;;;22.73;20.30;;;12.20;99.90;;;;;;5094097;28;20900;-74
2023/02/21 13:50:56;;;;;;;25.37;21.13;;;12.20;99.90;;;;;;5093722;28;20988;-74
2023/02/21 13:53:31;;;;;;;24.70;21.90;;;12.10;99.90;;;;;;5094148;28;20440;-73
2023/02/21 13:56:50;;;;;;;23.97;21.47;;;12.10;99.90;;;;;;5093365;28;20990;-73
2023/02/21 13:59:35;;;;;;;23.93;21.33;;;12.20;99.90;;;;;;5079717;28;20468;-73
2023/02/21 14:02:22;;;;;;;24.27;21.67;;;12.10;99.90;;;;;;5094451;28;21003;-73
2023/02/21 14:05:08;;;;;;;27.50;23.30;;;12.10;99.90;;;;;;5093385;28;20448;-73
2023/02/21 14:07:58;;;;;;;24.60;21.57;;;12.20;99.90;;;;;;5094319;28;20444;-73
2023/02/21 14:10:45;;;;;;;20.57;18.37;;;12.10;99.90;;;;;;5094409;28;20505;-74
2023/02/21 14:13:24;;;;;;;22.27;19.47;;;12.10;99.90;;;;;;5093110;28;20929;-73
2023/02/21 14:15:59;;;;;;;21.93;19.53;;;12.10;99.90;;;;;;5093027;28;20479;-73
2023/02/21 14:18:30;;;;;;;20.67;18.50;;;12.10;99.90;;;;;;5094216;28;21038;-74
2023/02/21 14:20:59;;;;;;;24.33;20.00;;;12.10;99.90;;;;;;5094439;28;20452;-73
2023/02/21 14:23:39;;;;;;;21.10;18.90;;;12.10;99.90;;;;;;5094059;28;20431;-74
2023/02/21 14:26:43;;;;;;;23.03;20.27;;;12.10;99.90;;;;;;5092853;28;20472;-74
2023/02/21 14:29:28;;;;;;;24.20;21.70;;;12.10;99.90;;;;;;5094902;28;20467;-73
2023/02/21 14:32:15;;;;;;;23.80;20.60;;;12.10;99.90;;;;;;5092917;28;20848;-73
2023/02/21 14:34:54;;;;;;;23.57;20.57;;;12.10;99.90;;;;;;5094022;28;20428;-73
2023/02/21 14:37:28;;;;;;;23.37;20.87;;;12.10;99.90;;;;;;5092648;28;20486;-74
2023/02/21 14:39:59;;;;;;;25.20;22.27;;;12.10;99.90;;;;;;5094076;28;20417;-74
2023/02/21 14:42:46;;;;;;;24.33;21.20;;;12.00;99.90;;;;;;5094023;28;20464;-74
2023/02/21 14:45:37;;;;;;;26.53;22.47;;;12.00;99.90;;;;;;5094037;28;20886;-74
2023/02/21 14:48:31;;;;;;;24.90;22.30;;;12.00;99.90;;;;;;5092417;28;20945;-74
2023/02/21 14:51:40;;;;;;;26.40;20.43;;;12.00;99.90;;;;;;5094095;28;20458;-73
2023/02/21 14:54:52;;;;;;;25.00;22.03;;;12.00;99.90;;;;;;5092418;28;20428;-73
2023/02/21 14:57:52;;;;;;;21.87;19.57;;;12.00;99.90;;;;;;5057619;28;20471;-74
2023/02/21 15:00:27;;;;;;;23.60;20.77;;;12.00;99.90;;;;;;5089691;28;20481;-74
2023/02/21 15:03:03;;;;;;;23.80;20.10;;;12.00;99.90;;;;;;5093579;28;20420;-75
2023/02/21 15:05:37;;;;;;;23.70;20.67;;;11.90;99.90;;;;;;5092052;28;22582;-75
2023/02/21 15:08:14;;;;;;;24.17;21.53;;;11.90;99.90;;;;;;5093459;28;20955;-74
2023/02/21 15:10:44;;;;;;;24.00;21.40;;;11.90;99.90;;;;;;5093386;28;20984;-74
2023/02/21 15:13:26;;;;;;;23.40;20.10;;;11.90;99.90;;;;;;5093435;28;20440;-74
2023/02/21 15:15:58;;;;;;;22.37;19.97;;;11.90;99.90;;;;;;5093395;28;20901;-74
2023/02/21 15:18:29;;;;;;;23.67;21.27;;;11.90;99.90;;;;;;5092032;28;20989;-74
2023/02/21 15:21:15;;;;;;;23.30;20.90;;;11.90;99.90;;;;;;5092038;28;20826;-74
2023/02/21 15:23:45;;;;;;;25.20;21.30;;;11.90;99.90;;;;;;5093316;28;20796;-74
2023/02/21 15:26:20;;;;;;;24.30;21.80;;;11.80;99.90;;;;;;5093449;28;20440;-74